Hauptseite
METAR-TAF:

METAR-TAF

Flughäfen :

Flughafen Paderborn/Lippstadt

Paderborn-Lippstadt, Deutschland

Breite: 51-37N, Länge: 008-37E, Höhe: 213 m

Beobachtung

Neuester Wetterbericht von vor 39 Minuten, um 09:20 UTC
Wind 4 kt aus West/Südwest
Temperatur 13°C
Luftfeuchtigkeit 77%
Luftdruck 1024 hPa
Sichtweite 10 km oder mehr
Aufgelockert bewölkt in der Höhe von 1700 ft

METAR: EDLP 280920Z 25004KT 9999 SCT017 13/09 Q1024

Zeit: 11:59 (09:59 UTC)

Prognose

Neuester Wetterbericht von vor 4 Stunden und 59 Minuten, um 05:00 UTC
Gültige Prognose vom 28 um 06 UTC bis 29 um 06 UTC
Wind 4 kt aus Südwest
Sichtweite 10 km oder mehr
Aufgelockert bewölkt in der Höhe von 2500 ft
Übergehend zu
vom 28 um 16 UTC bis 28 um 19 UTC
Wind 6 kt aus Süd/Südost

TAF: EDLP 280500Z 2806/2906 23004KT 9999 SCT025 BECMG 2816/2819 15006KT

Wetterbeobachtungen und Prognosen von mehr als 4000 Flughäfen (METAR und TAF Bericht).

Die verfügbaren Stationen werden durch gelbe und rote Markierungen auf der Karte dargestellt.

Führen Sie die Maus auf sie, um den Namen der Station zu sehen.

Darauf klicken, um die Beobachtung von Wetterbeobachtungen und Prognosen zu sehen.

Um die Karte zu ändern : klicken Sie auf den grünen Tasten mit einem schwarzen Kreuz Zum Vergrößern, auf den grünen Button mit einem Gedankenstrich zu verkleinern, oder auf die grünen Pfeile für benachbarte Karten.


METAR-TAF: